Wetterdaten: Woche 30.05.05 - 05.06.05 (KW22)
Datum Zeit Temperatur Luftfeuchte Luftdruck Niederschlag Windrichtung Wind
30.05.2005 00:00 19,1 C 71 % 1015 hPa 0,0 l/m N 0,0 km/h (0 Bft)
30.05.2005 01:00 18,1 C 75 % 1015 hPa 0,0 l/m N 0,0 km/h (0 Bft)
30.05.2005 02:00 17,4 C 81 % 1016 hPa 0,0 l/m NO 0,1 km/h (0 Bft)
30.05.2005 03:00 16,8 C 82 % 1016 hPa 0,0 l/m N 0,1 km/h (0 Bft)
30.05.2005 04:00 16,9 C 83 % 1016 hPa 0,0 l/m S-SW 3,4 km/h (1 Bft)
30.05.2005 05:00 18,2 C 82 % 1016 hPa 0,0 l/m S 9,8 km/h (2 Bft)
30.05.2005 06:00 18,1 C 82 % 1017 hPa 0,0 l/m S 10,3 km/h (2 Bft)
30.05.2005 07:00 19,4 C 78 % 1017 hPa 0,0 l/m S-SW 14,0 km/h (3 Bft)
30.05.2005 08:00 21,2 C 65 % 1017 hPa 0,0 l/m S-SW 16,8 km/h (3 Bft)
30.05.2005 09:00 22,4 C 59 % 1018 hPa 0,0 l/m W-SW 14,2 km/h (3 Bft)
30.05.2005 10:00 22,8 C 59 % 1018 hPa 0,0 l/m W-SW 13,1 km/h (3 Bft)
30.05.2005 11:00 23,7 C 55 % 1018 hPa 0,0 l/m W-SW 13,3 km/h (3 Bft)
30.05.2005 12:00 23,1 C 56 % 1019 hPa 0,0 l/m W 14,4 km/h (3 Bft)
30.05.2005 13:00 22,4 C 58 % 1019 hPa 0,0 l/m W 19,8 km/h (4 Bft)
30.05.2005 14:00 20,8 C 54 % 1019 hPa 0,0 l/m W 17,6 km/h (3 Bft)
30.05.2005 15:00 19,4 C 59 % 1020 hPa 0,0 l/m W-SW 20,5 km/h (4 Bft)
30.05.2005 16:00 16,5 C 83 % 1020 hPa 1,0 l/m W-SW 14,8 km/h (3 Bft)
30.05.2005 17:00 15,9 C 88 % 1020 hPa 0,0 l/m S-SW 10,4 km/h (2 Bft)
30.05.2005 18:00 15,9 C 94 % 1020 hPa 1,0 l/m S-SW 12,1 km/h (2 Bft)
30.05.2005 19:00 15,8 C 96 % 1020 hPa 0,0 l/m S 14,6 km/h (3 Bft)
30.05.2005 20:00 14,4 C 94 % 1021 hPa 8,0 l/m W-NW 18,9 km/h (3 Bft)
30.05.2005 21:00 12,5 C 94 % 1022 hPa 1,0 l/m W-NW 18,6 km/h (3 Bft)
30.05.2005 22:00 11,7 C 90 % 1024 hPa 0,0 l/m W 5,7 km/h (1 Bft)
30.05.2005 23:00 11,0 C 88 % 1025 hPa 0,0 l/m W-SW 6,6 km/h (2 Bft)
31.05.2005 00:00 9,7 C 88 % 1026 hPa 0,0 l/m W-SW 6,8 km/h (2 Bft)
31.05.2005 01:00 9,2 C 87 % 1026 hPa 0,0 l/m W-SW 7,6 km/h (2 Bft)
31.05.2005 02:00 8,8 C 84 % 1026 hPa 0,0 l/m W 12,9 km/h (3 Bft)
31.05.2005 03:00 8,4 C 84 % 1026 hPa 0,0 l/m NW 4,4 km/h (1 Bft)
31.05.2005 04:00 7,6 C 87 % 1026 hPa 0,0 l/m NW 3,8 km/h (1 Bft)
31.05.2005 05:00 6,9 C 91 % 1026 hPa 0,0 l/m W 0,9 km/h (0 Bft)
31.05.2005 06:00 7,2 C 95 % 1026 hPa 0,0 l/m N 0,0 km/h (0 Bft)
31.05.2005 07:00 8,7 C 96 % 1026 hPa 0,0 l/m S 1,1 km/h (1 Bft)
31.05.2005 08:00 10,6 C 79 % 1026 hPa 0,0 l/m S 6,3 km/h (2 Bft)
31.05.2005 09:00 12,5 C 64 % 1026 hPa 0,0 l/m N-NO 5,0 km/h (1 Bft)
31.05.2005 10:00 13,7 C 53 % 1026 hPa 0,0 l/m NW 5,4 km/h (1 Bft)
31.05.2005 11:00 15,2 C 49 % 1026 hPa 0,0 l/m N 8,5 km/h (2 Bft)
31.05.2005 12:00 16,1 C 47 % 1025 hPa 0,0 l/m W 11,0 km/h (2 Bft)
31.05.2005 13:00 16,9 C 46 % 1025 hPa 0,0 l/m W 11,6 km/h (2 Bft)
31.05.2005 14:00 16,8 C 46 % 1025 hPa 0,0 l/m N 8,6 km/h (2 Bft)
31.05.2005 15:00 17,6 C 44 % 1024 hPa 0,0 l/m N 13,1 km/h (3 Bft)
31.05.2005 16:00 17,3 C 44 % 1024 hPa 0,0 l/m W 9,3 km/h (2 Bft)
31.05.2005 17:00 16,6 C 44 % 1024 hPa 0,0 l/m N-NW 10,2 km/h (2 Bft)
31.05.2005 18:00 15,9 C 48 % 1023 hPa 0,0 l/m N 10,1 km/h (2 Bft)
31.05.2005 19:00 15,3 C 51 % 1024 hPa 0,0 l/m N 9,1 km/h (2 Bft)
31.05.2005 20:00 14,5 C 56 % 1023 hPa 0,0 l/m N 7,3 km/h (2 Bft)
31.05.2005 21:00 13,7 C 62 % 1024 hPa 0,0 l/m N 8,2 km/h (2 Bft)
31.05.2005 22:00 13,1 C 65 % 1024 hPa 0,0 l/m N 8,8 km/h (2 Bft)
31.05.2005 23:00 12,2 C 68 % 1024 hPa 0,0 l/m N-NW 2,7 km/h (1 Bft)
01.06.2005 00:00 10,9 C 75 % 1024 hPa 0,0 l/m N 0,0 km/h (0 Bft)
01.06.2005 01:00 10,2 C 81 % 1024 hPa 0,0 l/m N 0,0 km/h (0 Bft)
01.06.2005 02:00 10,1 C 81 % 1024 hPa 0,0 l/m NW 1,6 km/h (1 Bft)
01.06.2005 03:00 9,9 C 83 % 1023 hPa 0,0 l/m NW 0,5 km/h (0 Bft)
01.06.2005 04:00 9,7 C 85 % 1023 hPa 0,0 l/m NW 0,4 km/h (0 Bft)
01.06.2005 05:00 9,3 C 87 % 1023 hPa 0,0 l/m N 0,6 km/h (0 Bft)
01.06.2005 06:00 9,1 C 88 % 1023 hPa 0,0 l/m NW 1,6 km/h (1 Bft)
01.06.2005 07:00 10,1 C 83 % 1023 hPa 0,0 l/m N 5,9 km/h (2 Bft)
01.06.2005 08:00 12,1 C 71 % 1023 hPa 0,0 l/m N-NO 9,5 km/h (2 Bft)
01.06.2005 09:00 14,4 C 55 % 1023 hPa 0,0 l/m N-NO 11,8 km/h (2 Bft)
01.06.2005 10:00 16,5 C 47 % 1023 hPa 0,0 l/m O 11,9 km/h (2 Bft)
01.06.2005 11:00 17,0 C 43 % 1023 hPa 0,0 l/m N-NO 10,0 km/h (2 Bft)
01.06.2005 12:00 18,3 C 38 % 1023 hPa 0,0 l/m NO 8,1 km/h (2 Bft)
01.06.2005 13:00 19,5 C 36 % 1022 hPa 0,0 l/m NO 9,6 km/h (2 Bft)
01.06.2005 14:00 19,5 C 34 % 1022 hPa 0,0 l/m O 8,5 km/h (2 Bft)
01.06.2005 15:00 19,8 C 34 % 1022 hPa 0,0 l/m NO 10,1 km/h (2 Bft)
01.06.2005 16:00 20,6 C 34 % 1021 hPa 0,0 l/m NW 11,5 km/h (2 Bft)
01.06.2005 17:00 21,1 C 34 % 1021 hPa 0,0 l/m N-NO 13,2 km/h (3 Bft)
01.06.2005 18:00 20,5 C 33 % 1021 hPa 0,0 l/m N-NW 9,7 km/h (2 Bft)
01.06.2005 19:00 19,4 C 35 % 1020 hPa 0,0 l/m N-NO 8,8 km/h (2 Bft)
01.06.2005 20:00 17,4 C 39 % 1020 hPa 0,0 l/m N-NW 6,4 km/h (2 Bft)
01.06.2005 21:00 14,8 C 47 % 1021 hPa 0,0 l/m N 3,7 km/h (1 Bft)
01.06.2005 22:00 12,7 C 57 % 1021 hPa 0,0 l/m N 0,2 km/h (0 Bft)
01.06.2005 23:00 11,4 C 62 % 1021 hPa 0,0 l/m NW 0,3 km/h (0 Bft)
02.06.2005 00:00 10,6 C 68 % 1021 hPa 0,0 l/m W-NW 0,8 km/h (0 Bft)
02.06.2005 01:00 10,2 C 70 % 1021 hPa 0,0 l/m W-NW 2,0 km/h (1 Bft)
02.06.2005 02:00 9,6 C 75 % 1020 hPa 0,0 l/m W-NW 4,6 km/h (1 Bft)
02.06.2005 03:00 9,1 C 78 % 1020 hPa 0,0 l/m W-NW 2,8 km/h (1 Bft)
02.06.2005 04:00 8,7 C 79 % 1020 hPa 0,0 l/m NW 3,7 km/h (1 Bft)
02.06.2005 05:00 8,3 C 83 % 1020 hPa 0,0 l/m W-NW 5,2 km/h (1 Bft)
02.06.2005 06:00 8,4 C 82 % 1020 hPa 0,0 l/m NW 7,3 km/h (2 Bft)
02.06.2005 07:00 9,7 C 79 % 1020 hPa 0,0 l/m N 2,2 km/h (1 Bft)
02.06.2005 08:00 12,0 C 72 % 1020 hPa 0,0 l/m O 3,0 km/h (1 Bft)
02.06.2005 09:00 14,8 C 64 % 1020 hPa 0,0 l/m S-SW 2,2 km/h (1 Bft)
02.06.2005 10:00 17,7 C 50 % 1020 hPa 0,0 l/m W-SW 4,7 km/h (1 Bft)
02.06.2005 11:00 20,4 C 38 % 1020 hPa 0,0 l/m NO 8,5 km/h (2 Bft)
02.06.2005 12:00 21,5 C 36 % 1019 hPa 0,0 l/m O-SO 10,0 km/h (2 Bft)
02.06.2005 13:00 21,6 C 36 % 1019 hPa 0,0 l/m N 7,7 km/h (2 Bft)
02.06.2005 14:00 22,2 C 35 % 1019 hPa 0,0 l/m W 10,6 km/h (2 Bft)
02.06.2005 15:00 23,1 C 34 % 1018 hPa 0,0 l/m N 10,8 km/h (2 Bft)
02.06.2005 16:00 23,5 C 32 % 1018 hPa 0,0 l/m N-NW 5,7 km/h (1 Bft)
02.06.2005 17:00 24,3 C 32 % 1018 hPa 0,0 l/m N 4,5 km/h (1 Bft)
02.06.2005 18:00 24,1 C 31 % 1017 hPa 0,0 l/m O-NO 5,9 km/h (2 Bft)
02.06.2005 19:00 23,0 C 33 % 1017 hPa 0,0 l/m O 8,0 km/h (2 Bft)
02.06.2005 20:00 20,6 C 42 % 1017 hPa 0,0 l/m O 1,1 km/h (0 Bft)
02.06.2005 21:00 17,5 C 51 % 1017 hPa 0,0 l/m N 0,0 km/h (0 Bft)
02.06.2005 22:00 15,6 C 58 % 1017 hPa 0,0 l/m N 0,0 km/h (0 Bft)
02.06.2005 23:00 14,3 C 65 % 1017 hPa 0,0 l/m N 0,0 km/h (0 Bft)
03.06.2005 00:00 13,5 C 69 % 1017 hPa 0,0 l/m W 0,6 km/h (0 Bft)
03.06.2005 01:00 13,1 C 72 % 1017 hPa 0,0 l/m W-NW 0,6 km/h (0 Bft)
03.06.2005 02:00 12,6 C 74 % 1017 hPa 0,0 l/m N 0,0 km/h (0 Bft)
03.06.2005 03:00 11,9 C 77 % 1017 hPa 0,0 l/m N 0,0 km/h (0 Bft)
03.06.2005 04:00 11,1 C 80 % 1016 hPa 0,0 l/m N 0,0 km/h (0 Bft)
03.06.2005 05:00 10,3 C 84 % 1016 hPa 0,0 l/m N 0,0 km/h (0 Bft)
03.06.2005 06:00 10,4 C 87 % 1016 hPa 0,0 l/m N 0,0 km/h (0 Bft)
03.06.2005 07:00 12,4 C 84 % 1016 hPa 0,0 l/m N 0,0 km/h (0 Bft)
03.06.2005 08:00 14,9 C 73 % 1016 hPa 0,0 l/m S-SW 0,6 km/h (0 Bft)
03.06.2005 09:00 18,0 C 58 % 1016 hPa 0,0 l/m S-SW 8,1 km/h (2 Bft)
03.06.2005 10:00 21,0 C 47 % 1016 hPa 0,0 l/m S-SW 11,5 km/h (2 Bft)
03.06.2005 11:00 23,4 C 42 % 1016 hPa 0,0 l/m S-SW 12,0 km/h (2 Bft)
03.06.2005 12:00 24,7 C 42 % 1016 hPa 0,0 l/m S-SW 11,9 km/h (2 Bft)
03.06.2005 13:00 25,9 C 36 % 1015 hPa 0,0 l/m S 13,4 km/h (3 Bft)
03.06.2005 14:00 26,5 C 33 % 1015 hPa 0,0 l/m S-SW 14,8 km/h (3 Bft)
03.06.2005 15:00 27,0 C 31 % 1014 hPa 0,0 l/m S-SW 16,3 km/h (3 Bft)
03.06.2005 16:00 27,6 C 31 % 1013 hPa 0,0 l/m W-SW 16,4 km/h (3 Bft)
03.06.2005 17:00 28,5 C 26 % 1013 hPa 0,0 l/m W-SW 16,3 km/h (3 Bft)
03.06.2005 18:00 27,8 C 27 % 1012 hPa 0,0 l/m W-SW 10,9 km/h (2 Bft)
03.06.2005 19:00 25,6 C 35 % 1011 hPa 0,0 l/m S-SW 5,5 km/h (1 Bft)
03.06.2005 20:00 23,4 C 41 % 1012 hPa 0,0 l/m S-SW 1,8 km/h (1 Bft)
03.06.2005 21:00 21,1 C 47 % 1012 hPa 0,0 l/m W-SW 0,5 km/h (0 Bft)
03.06.2005 22:00 20,4 C 54 % 1012 hPa 0,0 l/m W-SW 11,1 km/h (2 Bft)
03.06.2005 23:00 17,9 C 77 % 1014 hPa 2,0 l/m W 12,1 km/h (2 Bft)
04.06.2005 00:00 16,4 C 89 % 1016 hPa 1,0 l/m S 10,0 km/h (2 Bft)
04.06.2005 01:00 15,9 C 98 % 1016 hPa 1,0 l/m S-SW 19,1 km/h (3 Bft)
04.06.2005 02:00 14,9 C 100 % 1016 hPa 1,0 l/m S-SW 21,1 km/h (4 Bft)
04.06.2005 03:00 14,5 C 100 % 1016 hPa 0,0 l/m S-SW 16,6 km/h (3 Bft)
04.06.2005 04:00 14,3 C 100 % 1016 hPa 1,0 l/m S-SW 17,8 km/h (3 Bft)
04.06.2005 05:00 14,1 C 100 % 1016 hPa 0,0 l/m S-SW 19,1 km/h (3 Bft)
04.06.2005 06:00 14,1 C 100 % 1016 hPa 0,0 l/m S-SW 15,9 km/h (3 Bft)
04.06.2005 07:00 14,1 C 97 % 1016 hPa 0,0 l/m S-SW 16,2 km/h (3 Bft)
04.06.2005 08:00 14,2 C 98 % 1016 hPa 0,0 l/m S-SW 12,8 km/h (3 Bft)
04.06.2005 09:00 14,6 C 100 % 1016 hPa 0,0 l/m S 14,4 km/h (3 Bft)
04.06.2005 10:00 15,0 C 97 % 1017 hPa 0,0 l/m S-SW 12,0 km/h (2 Bft)
04.06.2005 11:00 15,5 C 93 % 1017 hPa 0,0 l/m W-SW 15,7 km/h (3 Bft)
04.06.2005 12:00 16,3 C 86 % 1017 hPa 1,0 l/m W 10,5 km/h (2 Bft)
04.06.2005 13:00 16,1 C 76 % 1017 hPa 0,0 l/m W 8,9 km/h (2 Bft)
04.06.2005 14:00 17,2 C 70 % 1017 hPa 0,0 l/m S-SW 14,8 km/h (3 Bft)
04.06.2005 15:00 19,0 C 58 % 1017 hPa 0,0 l/m W-SW 16,9 km/h (3 Bft)
04.06.2005 16:00 20,1 C 49 % 1017 hPa 0,0 l/m W-SW 18,8 km/h (3 Bft)
04.06.2005 17:00 20,2 C 45 % 1017 hPa 0,0 l/m W-SW 18,1 km/h (3 Bft)
04.06.2005 18:00 18,8 C 48 % 1017 hPa 0,0 l/m W-SW 12,6 km/h (3 Bft)
04.06.2005 19:00 17,8 C 53 % 1017 hPa 0,0 l/m W-SW 10,1 km/h (2 Bft)
04.06.2005 20:00 17,1 C 51 % 1017 hPa 0,0 l/m W-SW 10,1 km/h (2 Bft)
04.06.2005 21:00 15,4 C 56 % 1018 hPa 0,0 l/m W-SW 4,0 km/h (1 Bft)
04.06.2005 22:00 13,8 C 65 % 1018 hPa 0,0 l/m W-SW 4,4 km/h (1 Bft)
04.06.2005 23:00 12,7 C 69 % 1019 hPa 0,0 l/m W-SW 8,0 km/h (2 Bft)
05.06.2005 00:00 13,0 C 64 % 1019 hPa 0,0 l/m W-SW 12,6 km/h (3 Bft)
05.06.2005 01:00 12,9 C 65 % 1019 hPa 0,0 l/m W-SW 9,0 km/h (2 Bft)
05.06.2005 02:00 13,0 C 65 % 1019 hPa 0,0 l/m W-SW 8,9 km/h (2 Bft)
05.06.2005 03:00 12,6 C 66 % 1019 hPa 0,0 l/m W-SW 9,0 km/h (2 Bft)
05.06.2005 04:00 12,3 C 64 % 1019 hPa 0,0 l/m W 11,5 km/h (2 Bft)
05.06.2005 05:00 12,1 C 66 % 1019 hPa 0,0 l/m W 9,8 km/h (2 Bft)
05.06.2005 06:00 11,8 C 69 % 1020 hPa 0,0 l/m W-SW 7,5 km/h (2 Bft)
05.06.2005 07:00 12,0 C 71 % 1020 hPa 0,0 l/m W 5,2 km/h (1 Bft)
05.06.2005 08:00 12,8 C 67 % 1020 hPa 0,0 l/m W 7,5 km/h (2 Bft)
05.06.2005 09:00 13,2 C 62 % 1020 hPa 0,0 l/m W 11,9 km/h (2 Bft)
05.06.2005 10:00 12,3 C 73 % 1021 hPa 0,0 l/m W 9,3 km/h (2 Bft)
05.06.2005 11:00 14,3 C 66 % 1020 hPa 0,0 l/m W 14,1 km/h (3 Bft)
05.06.2005 12:00 17,0 C 49 % 1020 hPa 0,0 l/m W-SW 15,1 km/h (3 Bft)
05.06.2005 13:00 16,7 C 47 % 1020 hPa 0,0 l/m W-SW 13,3 km/h (3 Bft)
05.06.2005 14:00 16,5 C 48 % 1019 hPa 0,0 l/m W-SW 9,9 km/h (2 Bft)
05.06.2005 15:00 17,5 C 46 % 1019 hPa 0,0 l/m W 11,7 km/h (2 Bft)
05.06.2005 16:00 18,0 C 46 % 1019 hPa 0,0 l/m SW 8,8 km/h (2 Bft)
05.06.2005 17:00 17,5 C 46 % 1019 hPa 0,0 l/m W-SW 9,4 km/h (2 Bft)
05.06.2005 18:00 16,9 C 48 % 1018 hPa 0,0 l/m W 9,1 km/h (2 Bft)
05.06.2005 19:00 16,5 C 52 % 1018 hPa 0,0 l/m W-SW 4,1 km/h (1 Bft)
05.06.2005 20:00 15,6 C 53 % 1019 hPa 0,0 l/m W 5,4 km/h (1 Bft)
05.06.2005 21:00 14,6 C 59 % 1019 hPa 0,0 l/m W 1,6 km/h (1 Bft)
05.06.2005 22:00 13,9 C 65 % 1019 hPa 0,0 l/m W 0,4 km/h (0 Bft)
05.06.2005 23:00 13,6 C 67 % 1019 hPa 0,0 l/m W 5,1 km/h (1 Bft)
Min-Datum _ 31.05.05 03.06.05 03.06.05 - - 30.05.05
_ Min-Zeit 05:38 17:50 18:43 - - 00:00
Minimum _ 6,7 C 24 % 1011 hPa - - 0,0 km/h (0 Bft)
Max-Datum _ 03.06.05 04.06.05 30.05.05 30.05.05 - 30.05.05
_ Max-Zeit 17:44 02:24 23:59 20:09 - 14:57
Maximum _ 28,9 C 100 % 1026 hPa 8,0 l/m - 40,3 km/h
W (6 Bft)
Durchschnitt _ 16,0 C 64 % 1020 hPa #18,0 l/m W-SW 8,3 km/h (2 Bft)

Durchschnitt Minimum Temp.15,4 C
Durchschnitt Maximum Temp.16,5 C